createdAt,value
2023-02-04T00:00:26.832Z,0
2023-02-04T00:01:28.076Z,0
2023-02-04T00:02:28.348Z,0
2023-02-04T00:03:28.568Z,0
2023-02-04T00:04:29.054Z,0
2023-02-04T00:05:29.074Z,0
2023-02-04T00:06:30.623Z,0
2023-02-04T00:07:30.324Z,0
2023-02-04T00:08:31.547Z,0
2023-02-04T00:09:31.780Z,0
2023-02-04T00:10:32.188Z,0
2023-02-04T00:11:32.322Z,0
2023-02-04T00:12:32.913Z,0
2023-02-04T00:13:33.114Z,0
2023-02-04T00:14:33.324Z,0
2023-02-04T00:15:34.240Z,0
2023-02-04T00:16:35.027Z,0
2023-02-04T00:17:35.214Z,0
2023-02-04T00:18:38.879Z,0
2023-02-04T00:19:36.805Z,0
2023-02-04T00:20:38.388Z,0
2023-02-04T00:21:38.008Z,0
2023-02-04T00:22:39.295Z,0
2023-02-04T00:23:38.905Z,0
2023-02-04T00:24:40.409Z,0
2023-02-04T00:25:40.349Z,0
2023-02-04T00:26:41.276Z,0
2023-02-04T00:27:42.756Z,0
2023-02-04T00:28:43.001Z,0
2023-02-04T00:29:42.951Z,0
2023-02-04T00:30:44.657Z,0
2023-02-04T00:31:45.105Z,0
2023-02-04T00:32:45.066Z,0
2023-02-04T00:33:45.262Z,0
2023-02-04T00:34:45.168Z,0
2023-02-04T00:35:46.398Z,0
2023-02-04T00:36:47.317Z,0
2023-02-04T00:37:47.778Z,0
2023-02-04T00:38:48.696Z,0
2023-02-04T00:39:49.911Z,0
2023-02-04T00:40:49.826Z,0
2023-02-04T00:41:50.744Z,0
2023-02-04T00:42:52.139Z,0
2023-02-04T00:43:52.340Z,0
2023-02-04T00:44:53.377Z,0
2023-02-04T00:45:53.682Z,0
2023-02-04T00:46:53.969Z,0
2023-02-04T00:47:54.951Z,0
2023-02-04T00:48:55.438Z,0
2023-02-04T00:49:55.356Z,0
2023-02-04T00:50:56.335Z,0
2023-02-04T00:51:56.851Z,0
2023-02-04T00:52:57.783Z,0
2023-02-04T00:53:57.120Z,0
2023-02-04T00:54:57.736Z,0
2023-02-04T00:55:58.420Z,0
2023-02-04T00:56:59.354Z,0
2023-02-04T00:58:00.774Z,0
2023-02-04T00:59:00.964Z,0
2023-02-04T01:00:00.911Z,0
2023-02-04T01:01:02.977Z,0
2023-02-04T01:02:03.509Z,0
2023-02-04T01:03:04.074Z,0
2023-02-04T01:04:04.326Z,0
2023-02-04T01:05:03.961Z,0
2023-02-04T01:06:04.907Z,0
2023-02-04T01:07:04.880Z,0
2023-02-04T01:08:05.789Z,0
2023-02-04T01:09:06.438Z,0
2023-02-04T01:10:07.355Z,0
2023-02-04T01:11:07.977Z,0
2023-02-04T01:12:09.174Z,0
2023-02-04T01:13:09.769Z,0
2023-02-04T01:14:10.274Z,0
2023-02-04T01:15:10.768Z,0
2023-02-04T01:16:11.234Z,0
2023-02-04T01:17:10.889Z,0
2023-02-04T01:18:12.193Z,0
2023-02-04T01:19:13.410Z,0
2023-02-04T01:20:13.640Z,0
2023-02-04T01:21:13.567Z,0
2023-02-04T01:22:15.059Z,0
2023-02-04T01:23:14.990Z,0
2023-02-04T01:24:15.183Z,0
2023-02-04T01:25:15.581Z,0
2023-02-04T01:26:16.779Z,0
2023-02-04T01:27:16.394Z,0
2023-02-04T01:28:18.571Z,0
2023-02-04T01:29:18.762Z,0
2023-02-04T01:30:20.014Z,0
2023-02-04T01:31:20.745Z,0
2023-02-04T01:32:20.787Z,0
2023-02-04T01:33:21.998Z,0
2023-02-04T01:34:22.927Z,0
2023-02-04T01:35:23.264Z,0
2023-02-04T01:36:24.532Z,0
2023-02-04T01:37:25.012Z,0
2023-02-04T01:38:25.608Z,0
2023-02-04T01:39:25.821Z,0
2023-02-04T01:40:26.050Z,0
2023-02-04T01:41:26.269Z,0
2023-02-04T01:42:26.475Z,0
2023-02-04T01:43:27.795Z,0
2023-02-04T01:44:27.715Z,0
2023-02-04T01:45:28.917Z,0
2023-02-04T01:46:30.091Z,0
2023-02-04T01:47:30.312Z,0
2023-02-04T01:48:31.118Z,0
2023-02-04T01:49:31.034Z,0
2023-02-04T01:50:31.935Z,0
2023-02-04T01:51:31.764Z,0
2023-02-04T01:52:32.682Z,0
2023-02-04T01:53:33.605Z,0
2023-02-04T01:54:33.514Z,0
2023-02-04T01:55:34.425Z,0
2023-02-04T01:56:35.631Z,0
2023-02-04T01:57:35.832Z,0
2023-02-04T01:58:36.622Z,0
2023-02-04T01:59:36.818Z,0
2023-02-04T02:00:37.909Z,0
2023-02-04T02:01:37.772Z,0
2023-02-04T02:02:38.607Z,0
2023-02-04T02:03:38.557Z,0
2023-02-04T02:04:39.551Z,0
2023-02-04T02:05:39.762Z,0
2023-02-04T02:06:40.397Z,0
2023-02-04T02:07:41.749Z,0
2023-02-04T02:08:42.166Z,0
2023-02-04T02:09:42.181Z,0
2023-02-04T02:10:43.550Z,0
2023-02-04T02:11:42.748Z,0
2023-02-04T02:12:42.385Z,0
2023-02-04T02:13:43.975Z,0
2023-02-04T02:14:44.166Z,0
2023-02-04T02:15:44.649Z,0
2023-02-04T02:16:45.230Z,0
2023-02-04T02:17:45.165Z,0
2023-02-04T02:18:46.468Z,0
2023-02-04T02:19:46.664Z,0
2023-02-04T02:20:47.408Z,0
2023-02-04T02:21:47.619Z,0
2023-02-04T02:22:47.846Z,0
2023-02-04T02:23:48.336Z,0
2023-02-04T02:24:48.534Z,0
2023-02-04T02:25:48.753Z,0
2023-02-04T02:26:49.688Z,0
2023-02-04T02:27:49.795Z,0
2023-02-04T02:28:50.486Z,0
2023-02-04T02:29:50.384Z,0
2023-02-04T02:30:52.509Z,0
2023-02-04T02:31:52.501Z,0
2023-02-04T02:32:52.186Z,0
2023-02-04T02:33:53.394Z,0
2023-02-04T02:34:53.890Z,0
2023-02-04T02:35:53.636Z,0
2023-02-04T02:36:54.834Z,0
2023-02-04T02:37:55.745Z,0
2023-02-04T02:38:56.211Z,0
2023-02-04T02:39:57.207Z,0
2023-02-04T02:40:58.698Z,0
2023-02-04T02:41:58.598Z,0
2023-02-04T02:42:59.793Z,0
2023-02-04T02:44:01.126Z,0
2023-02-04T02:45:01.313Z,0
2023-02-04T02:46:01.241Z,0
2023-02-04T02:47:02.460Z,0
2023-02-04T02:48:02.472Z,0
2023-02-04T02:49:02.901Z,0
2023-02-04T02:50:03.798Z,0
2023-02-04T02:51:04.165Z,0
2023-02-04T02:52:04.785Z,0
2023-02-04T02:53:05.282Z,0
2023-02-04T02:54:06.191Z,0
2023-02-04T02:55:06.539Z,0
2023-02-04T02:56:07.745Z,0
2023-02-04T02:57:07.674Z,0
2023-02-04T02:58:08.883Z,0
2023-02-04T02:59:09.293Z,0
2023-02-04T03:00:09.510Z,0
2023-02-04T03:01:10.377Z,0
2023-02-04T03:02:10.716Z,0
2023-02-04T03:03:10.718Z,0
2023-02-04T03:04:11.624Z,0
2023-02-04T03:05:12.571Z,0
2023-02-04T03:06:14.073Z,0
2023-02-04T03:07:14.020Z,0
2023-02-04T03:08:14.959Z,0
2023-02-04T03:09:16.255Z,0
2023-02-04T03:10:16.743Z,0
2023-02-04T03:11:16.680Z,0
2023-02-04T03:12:17.613Z,0
2023-02-04T03:13:17.518Z,0
2023-02-04T03:14:19.136Z,0
2023-02-04T03:15:19.048Z,0
2023-02-04T03:16:20.542Z,0
2023-02-04T03:17:20.459Z,0
2023-02-04T03:18:21.376Z,0
2023-02-04T03:19:21.698Z,0
2023-02-04T03:20:22.644Z,0
2023-02-04T03:21:23.278Z,0
2023-02-04T03:22:24.205Z,0
2023-02-04T03:23:24.716Z,0
2023-02-04T03:24:24.650Z,0
2023-02-04T03:25:25.588Z,0
2023-02-04T03:26:26.509Z,0
2023-02-04T03:27:27.444Z,0
2023-02-04T03:28:28.387Z,0
2023-02-04T03:29:29.903Z,0
2023-02-04T03:30:29.269Z,0
2023-02-04T03:31:30.049Z,0
2023-02-04T03:32:29.731Z,0
2023-02-04T03:33:31.221Z,0
2023-02-04T03:34:31.183Z,0
2023-02-04T03:35:32.123Z,0
2023-02-04T03:36:33.343Z,0
2023-02-04T03:37:33.826Z,0
2023-02-04T03:38:36.745Z,0
2023-02-04T03:39:34.763Z,0
2023-02-04T03:40:35.959Z,0
2023-02-04T03:41:36.155Z,0
2023-02-04T03:42:36.340Z,0
2023-02-04T03:43:39.220Z,0
2023-02-04T03:44:37.833Z,0
2023-02-04T03:45:54.697Z,0
2023-02-04T03:46:39.130Z,0
2023-02-04T03:47:39.060Z,0
2023-02-04T03:48:40.001Z,0
2023-02-04T03:49:41.338Z,0
2023-02-04T03:50:41.828Z,0
2023-02-04T03:51:42.023Z,0
2023-02-04T03:52:42.227Z,0
2023-02-04T03:53:42.157Z,0
2023-02-04T03:54:43.344Z,0
2023-02-04T03:55:44.570Z,0
2023-02-04T03:56:44.483Z,0
2023-02-04T03:57:44.693Z,0
2023-02-04T03:58:44.902Z,0
2023-02-04T03:59:45.609Z,0
2023-02-04T04:00:46.511Z,0
2023-02-04T04:01:46.447Z,0
2023-02-04T04:02:46.598Z,0
2023-02-04T04:03:47.549Z,0
2023-02-04T04:04:48.179Z,0
2023-02-04T04:05:48.892Z,0
2023-02-04T04:06:49.538Z,0
2023-02-04T04:07:50.731Z,0
2023-02-04T04:08:51.934Z,0
2023-02-04T04:09:52.084Z,0
2023-02-04T04:10:53.245Z,0
2023-02-04T04:11:53.464Z,0
2023-02-04T04:12:53.373Z,0
2023-02-04T04:13:54.038Z,0
2023-02-04T04:14:55.671Z,0
2023-02-04T04:15:56.045Z,0
2023-02-04T04:16:56.529Z,0
2023-02-04T04:17:56.443Z,0
2023-02-04T04:18:57.348Z,0
2023-02-04T04:19:58.960Z,0
2023-02-04T04:20:58.864Z,0
2023-02-04T04:21:59.540Z,0
2023-02-04T04:23:00.448Z,0
2023-02-04T04:24:01.631Z,0
2023-02-04T04:25:01.563Z,0
2023-02-04T04:26:01.899Z,0
2023-02-04T04:27:02.834Z,0
2023-02-04T04:28:04.266Z,0
2023-02-04T04:29:04.176Z,0
2023-02-04T04:30:05.283Z,0
2023-02-04T04:31:05.661Z,0
2023-02-04T04:32:06.383Z,0
2023-02-04T04:33:06.614Z,0
2023-02-04T04:34:07.272Z,0
2023-02-04T04:35:07.914Z,0
2023-02-04T04:36:08.550Z,0
2023-02-04T04:37:09.758Z,0
2023-02-04T04:38:10.703Z,0
2023-02-04T04:39:10.326Z,0
2023-02-04T04:40:11.383Z,0
2023-02-04T04:41:12.321Z,0
2023-02-04T04:42:13.257Z,0
2023-02-04T04:43:13.482Z,0
2023-02-04T04:44:13.677Z,0
2023-02-04T04:45:14.283Z,0
2023-02-04T04:46:14.223Z,0
2023-02-04T04:47:14.943Z,0
2023-02-04T04:48:15.872Z,0
2023-02-04T04:49:17.374Z,0
2023-02-04T04:50:17.360Z,0
2023-02-04T04:51:17.861Z,0
2023-02-04T04:52:17.808Z,0
2023-02-04T04:53:19.014Z,0
2023-02-04T04:54:19.361Z,0
2023-02-04T04:55:19.997Z,0
2023-02-04T04:56:21.258Z,0
2023-02-04T04:57:21.460Z,0
2023-02-04T04:58:22.078Z,0
2023-02-04T04:59:22.701Z,0
2023-02-04T05:00:24.442Z,0
2023-02-04T05:01:24.673Z,0
2023-02-04T05:02:24.296Z,0
2023-02-04T05:03:25.206Z,0
2023-02-04T05:04:26.103Z,0
2023-02-04T05:05:26.481Z,0
2023-02-04T05:06:26.372Z,0
2023-02-04T05:07:27.585Z,0
2023-02-04T05:08:28.530Z,0
2023-02-04T05:09:29.478Z,0
2023-02-04T05:10:31.091Z,0
2023-02-04T05:11:31.074Z,0
2023-02-04T05:12:31.556Z,0
2023-02-04T05:13:31.683Z,0
2023-02-04T05:14:32.167Z,0
2023-02-04T05:15:32.824Z,0
2023-02-04T05:16:33.345Z,0
2023-02-04T05:17:34.282Z,0
2023-02-04T05:18:34.227Z,0
2023-02-04T05:19:34.166Z,0
2023-02-04T05:20:35.831Z,0
2023-02-04T05:21:35.553Z,0
2023-02-04T05:22:36.488Z,0
2023-02-04T05:23:36.974Z,0
2023-02-04T05:24:37.460Z,0
2023-02-04T05:25:37.367Z,0
2023-02-04T05:26:46.679Z,0
2023-02-04T05:27:37.868Z,0
2023-02-04T05:28:39.081Z,0
2023-02-04T05:29:39.030Z,0
2023-02-04T05:30:41.448Z,0
2023-02-04T05:31:41.105Z,0
2023-02-04T05:32:41.343Z,0
2023-02-04T05:33:41.536Z,0
2023-02-04T05:34:45.153Z,0
2023-02-04T05:35:43.085Z,0
2023-02-04T05:36:44.017Z,0
2023-02-04T05:37:44.953Z,0
2023-02-04T05:38:46.177Z,0
2023-02-04T05:39:46.389Z,0
2023-02-04T05:40:47.299Z,0
2023-02-04T05:41:47.513Z,0
2023-02-04T05:42:47.212Z,0
2023-02-04T05:43:48.121Z,0
2023-02-04T05:44:49.098Z,0
2023-02-04T05:45:51.116Z,0
2023-02-04T05:46:51.330Z,0
2023-02-04T05:47:51.692Z,0
2023-02-04T05:48:52.192Z,0
2023-02-04T05:49:52.138Z,0
2023-02-04T05:50:52.851Z,0
2023-02-04T05:51:53.775Z,0
2023-02-04T05:52:55.263Z,0
2023-02-04T05:53:55.170Z,0
2023-02-04T05:54:56.089Z,0
2023-02-04T05:55:57.586Z,0
2023-02-04T05:56:57.785Z,0
2023-02-04T05:57:58.264Z,0
2023-02-04T05:58:57.616Z,0
2023-02-04T05:59:58.826Z,0
2023-02-04T06:00:59.411Z,0
2023-02-04T06:01:59.025Z,0
2023-02-04T06:03:00.080Z,0
2023-02-04T06:04:01.238Z,0
2023-02-04T06:05:01.634Z,0
2023-02-04T06:06:01.289Z,0
2023-02-04T06:07:02.204Z,0
2023-02-04T06:08:02.119Z,0
2023-02-04T06:09:03.127Z,0
2023-02-04T06:10:05.288Z,0
2023-02-04T06:11:03.549Z,0
2023-02-04T06:12:04.207Z,0
2023-02-04T06:13:05.724Z,0
2023-02-04T06:14:05.912Z,0
2023-02-04T06:15:05.812Z,0
2023-02-04T06:16:07.172Z,0
2023-02-04T06:17:07.009Z,0
2023-02-04T06:18:07.979Z,0
2023-02-04T06:19:08.205Z,0
2023-02-04T06:20:09.131Z,0
2023-02-04T06:21:09.737Z,0
2023-02-04T06:22:09.970Z,0
2023-02-04T06:23:09.870Z,0
2023-02-04T06:24:11.361Z,0
2023-02-04T06:25:11.884Z,0
2023-02-04T06:26:11.252Z,0
2023-02-04T06:27:11.939Z,0
2023-02-04T06:28:13.164Z,0
2023-02-04T06:29:13.430Z,0
2023-02-04T06:30:13.357Z,0
2023-02-04T06:31:14.972Z,0
2023-02-04T06:32:14.799Z,0
2023-02-04T06:33:15.006Z,0
2023-02-04T06:34:15.200Z,0
2023-02-04T06:35:15.389Z,0
2023-02-04T06:36:15.603Z,0
2023-02-04T06:37:16.235Z,0
2023-02-04T06:38:17.727Z,0
2023-02-04T06:39:18.226Z,0
2023-02-04T06:40:17.873Z,0
2023-02-04T06:41:18.890Z,0
2023-02-04T06:42:20.098Z,0
2023-02-04T06:43:21.166Z,0
2023-02-04T06:44:20.513Z,0
2023-02-04T06:45:21.709Z,0
2023-02-04T06:46:22.728Z,0
2023-02-04T06:47:23.012Z,0
2023-02-04T06:48:22.637Z,0
2023-02-04T06:49:23.280Z,0
2023-02-04T06:50:24.036Z,0
2023-02-04T06:51:24.516Z,0
2023-02-04T06:52:25.725Z,0
2023-02-04T06:53:26.683Z,0
2023-02-04T06:54:26.880Z,0
2023-02-04T06:55:27.813Z,0
2023-02-04T06:56:27.738Z,0
2023-02-04T06:57:28.076Z,0
2023-02-04T06:58:29.025Z,0
2023-02-04T06:59:30.517Z,0
2023-02-04T07:00:31.268Z,0
2023-02-04T07:01:31.640Z,0
2023-02-04T07:02:32.120Z,0
2023-02-04T07:03:32.090Z,0
2023-02-04T07:04:33.023Z,0
2023-02-04T07:05:33.954Z,0
2023-02-04T07:06:34.897Z,0
2023-02-04T07:07:34.526Z,0
2023-02-04T07:08:35.440Z,0
2023-02-04T07:09:35.654Z,0
2023-02-04T07:10:36.299Z,0
2023-02-04T07:11:36.031Z,0
2023-02-04T07:12:35.954Z,0
2023-02-04T07:13:36.572Z,0
2023-02-04T07:14:38.073Z,0
2023-02-04T07:15:38.836Z,0
2023-02-04T07:16:39.173Z,0
2023-02-04T07:17:39.095Z,0
2023-02-04T07:18:40.008Z,0
2023-02-04T07:19:41.203Z,0
2023-02-04T07:20:42.516Z,0
2023-02-04T07:21:41.263Z,0
2023-02-04T07:22:42.197Z,0
2023-02-04T07:23:42.447Z,5.63
2023-02-04T07:24:43.105Z,5.63
2023-02-04T07:25:44.318Z,5.63
2023-02-04T07:26:44.217Z,5.63
2023-02-04T07:27:45.244Z,5.63
2023-02-04T07:28:45.160Z,0
2023-02-04T07:29:46.384Z,0
2023-02-04T07:30:47.903Z,5.63
2023-02-04T07:31:48.664Z,5.63
2023-02-04T07:32:47.302Z,5.63
2023-02-04T07:33:47.948Z,5.63
2023-02-04T07:34:49.152Z,5.63
2023-02-04T07:35:49.354Z,5.63
2023-02-04T07:36:50.054Z,5.63
2023-02-04T07:37:51.298Z,5.63
2023-02-04T07:38:51.208Z,5.63
2023-02-04T07:39:52.630Z,5.63
2023-02-04T07:40:53.866Z,5.63
2023-02-04T07:41:53.198Z,5.63
2023-02-04T07:42:54.686Z,5.63
2023-02-04T07:43:55.175Z,5.63
2023-02-04T07:44:54.813Z,5.63
2023-02-04T07:45:56.043Z,5.63
2023-02-04T07:46:56.541Z,5.63
2023-02-04T07:47:56.451Z,5.63
2023-02-04T07:48:57.361Z,5.63
2023-02-04T07:49:58.549Z,5.63
2023-02-04T07:50:59.181Z,5.63
2023-02-04T07:52:00.188Z,0
2023-02-04T07:53:01.398Z,5.63
2023-02-04T07:54:01.601Z,5.63
2023-02-04T07:55:01.951Z,5.63
2023-02-04T07:56:03.232Z,5.63
2023-02-04T07:57:03.164Z,5.63
2023-02-04T07:58:04.088Z,11.25
2023-02-04T07:59:04.206Z,11.25
2023-02-04T08:00:05.460Z,11.25
2023-02-04T08:01:05.425Z,11.25
2023-02-04T08:02:07.303Z,11.25
2023-02-04T08:03:07.254Z,11.25
2023-02-04T08:04:08.775Z,11.25
2023-02-04T08:05:08.686Z,11.25
2023-02-04T08:06:09.912Z,11.25
2023-02-04T08:07:10.123Z,11.25
2023-02-04T08:08:10.628Z,11.25
2023-02-04T08:09:10.582Z,11.25
2023-02-04T08:10:11.274Z,11.25
2023-02-04T08:11:14.916Z,11.25
2023-02-04T08:12:12.929Z,16.88
2023-02-04T08:13:13.153Z,16.88
2023-02-04T08:14:13.786Z,11.25
2023-02-04T08:15:14.997Z,11.25
2023-02-04T08:16:17.456Z,11.25
2023-02-04T08:17:16.136Z,11.25
2023-02-04T08:18:16.628Z,11.25
2023-02-04T08:19:16.278Z,16.88
2023-02-04T08:20:17.680Z,16.88
2023-02-04T08:21:19.372Z,16.88
2023-02-04T08:22:19.061Z,16.88
2023-02-04T08:23:18.986Z,16.88
2023-02-04T08:24:18.613Z,22.5
2023-02-04T08:25:19.825Z,22.5
2023-02-04T08:26:20.025Z,22.5
2023-02-04T08:27:19.952Z,22.5
2023-02-04T08:28:21.550Z,28.13
2023-02-04T08:29:21.203Z,28.13
2023-02-04T08:30:22.255Z,28.13
2023-02-04T08:31:24.122Z,28.13
2023-02-04T08:32:24.438Z,28.13
2023-02-04T08:33:24.625Z,28.13
2023-02-04T08:34:25.550Z,33.75
2023-02-04T08:35:25.467Z,33.75
2023-02-04T08:36:26.402Z,33.75
2023-02-04T08:37:26.504Z,39.38
2023-02-04T08:38:27.244Z,39.38
2023-02-04T08:39:27.515Z,39.38
2023-02-04T08:40:29.510Z,33.75
2023-02-04T08:41:29.521Z,33.75
2023-02-04T08:42:30.865Z,33.75
2023-02-04T08:43:30.823Z,33.75
2023-02-04T08:44:31.477Z,33.75
2023-02-04T08:45:32.699Z,33.75
2023-02-04T08:46:33.023Z,33.75
2023-02-04T08:47:33.651Z,33.75
2023-02-04T08:48:33.857Z,33.75
2023-02-04T08:49:33.791Z,33.75
2023-02-04T08:50:36.478Z,39.38
2023-02-04T08:51:35.266Z,39.38
2023-02-04T08:52:36.271Z,39.38
2023-02-04T08:53:36.491Z,33.75
2023-02-04T08:54:36.411Z,33.75
2023-02-04T08:55:37.343Z,33.75
2023-02-04T08:56:38.062Z,33.75
2023-02-04T08:57:38.330Z,33.75
2023-02-04T08:58:39.263Z,33.75
2023-02-04T08:59:39.929Z,33.75
2023-02-04T09:00:42.258Z,33.75
2023-02-04T09:01:41.404Z,33.75
2023-02-04T09:02:42.316Z,33.75
2023-02-04T09:03:42.509Z,33.75
2023-02-04T09:04:42.149Z,33.75
2023-02-04T09:05:43.371Z,33.75
2023-02-04T09:06:43.337Z,39.38
2023-02-04T09:07:44.241Z,39.38
2023-02-04T09:08:45.458Z,39.38
2023-02-04T09:09:45.957Z,39.38
2023-02-04T09:10:46.637Z,33.75
2023-02-04T09:11:46.288Z,33.75
2023-02-04T09:12:47.025Z,33.75
2023-02-04T09:13:48.228Z,33.75
2023-02-04T09:14:48.165Z,33.75
2023-02-04T09:15:48.505Z,33.75
2023-02-04T09:16:50.315Z,33.75
2023-02-04T09:17:50.637Z,33.75
2023-02-04T09:18:51.127Z,33.75
2023-02-04T09:19:51.061Z,33.75
2023-02-04T09:20:51.395Z,39.38
2023-02-04T09:21:52.605Z,39.38
2023-02-04T09:22:53.691Z,39.38
2023-02-04T09:23:54.611Z,39.38
2023-02-04T09:24:54.839Z,39.38
2023-02-04T09:25:54.792Z,39.38
2023-02-04T09:26:56.288Z,39.38
2023-02-04T09:27:56.633Z,45
2023-02-04T09:28:57.163Z,45
2023-02-04T09:29:57.370Z,50.63
2023-02-04T09:30:59.004Z,50.63
2023-02-04T09:31:59.525Z,50.63
2023-02-04T09:33:00.242Z,50.63
2023-02-04T09:34:00.753Z,45
2023-02-04T09:35:00.674Z,39.38
2023-02-04T09:36:01.023Z,39.38
2023-02-04T09:37:02.286Z,39.38
2023-02-04T09:38:02.962Z,39.38
2023-02-04T09:39:04.190Z,39.38
2023-02-04T09:40:04.393Z,39.38
2023-02-04T09:41:04.311Z,39.38
2023-02-04T09:42:04.965Z,39.38
2023-02-04T09:43:06.580Z,39.38
2023-02-04T09:44:06.830Z,39.38
2023-02-04T09:45:07.754Z,39.38
2023-02-04T09:46:08.293Z,39.38
2023-02-04T09:47:08.399Z,39.38
2023-02-04T09:48:10.341Z,39.38
2023-02-04T09:49:09.286Z,39.38
2023-02-04T09:50:10.855Z,33.75
2023-02-04T09:51:10.827Z,33.75
2023-02-04T09:52:11.154Z,33.75
2023-02-04T09:53:11.892Z,39.38
2023-02-04T09:54:11.805Z,39.38
2023-02-04T09:55:12.726Z,39.38
2023-02-04T09:56:13.925Z,39.38
2023-02-04T09:57:13.993Z,39.38
2023-02-04T09:58:14.616Z,39.38
2023-02-04T09:59:15.556Z,33.75
2023-02-04T10:00:16.917Z,33.75
2023-02-04T10:01:17.870Z,33.75
2023-02-04T10:02:18.180Z,39.38
2023-02-04T10:03:19.035Z,39.38
2023-02-04T10:04:19.423Z,39.38
2023-02-04T10:05:20.863Z,39.38
2023-02-04T10:06:20.297Z,39.38
2023-02-04T10:07:21.317Z,39.38
2023-02-04T10:08:21.992Z,39.38
2023-02-04T10:09:23.209Z,39.38
2023-02-04T10:10:23.698Z,39.38
2023-02-04T10:11:23.338Z,39.38
2023-02-04T10:12:24.828Z,39.38
2023-02-04T10:13:25.125Z,33.75
2023-02-04T10:14:25.054Z,33.75
2023-02-04T10:15:25.989Z,33.75
2023-02-04T10:16:27.784Z,33.75
2023-02-04T10:17:27.461Z,33.75
2023-02-04T10:18:29.060Z,39.38
2023-02-04T10:19:29.280Z,39.38
2023-02-04T10:20:29.887Z,39.38
2023-02-04T10:21:30.154Z,39.38
2023-02-04T10:22:30.805Z,39.38
2023-02-04T10:23:32.137Z,39.38
2023-02-04T10:24:31.866Z,39.38
2023-02-04T10:25:33.081Z,39.38
2023-02-04T10:26:34.117Z,39.38
2023-02-04T10:27:35.357Z,39.38
2023-02-04T10:28:35.625Z,39.38
2023-02-04T10:29:36.662Z,39.38
2023-02-04T10:30:38.100Z,45
2023-02-04T10:31:38.109Z,45
2023-02-04T10:32:37.704Z,45
2023-02-04T10:33:38.385Z,45
2023-02-04T10:34:38.592Z,39.38
2023-02-04T10:35:39.090Z,39.38
2023-02-04T10:36:39.014Z,39.38
2023-02-04T10:37:39.932Z,39.38
2023-02-04T10:38:40.620Z,39.38
2023-02-04T10:39:41.865Z,39.38
2023-02-04T10:40:43.197Z,39.38
2023-02-04T10:41:42.393Z,39.38
2023-02-04T10:42:42.618Z,39.38
2023-02-04T10:43:42.658Z,39.38
2023-02-04T10:44:42.737Z,39.38
2023-02-04T10:45:43.642Z,39.38
2023-02-04T10:46:44.366Z,45
2023-02-04T10:47:45.302Z,50.63
2023-02-04T10:48:45.938Z,56.25
2023-02-04T10:49:45.844Z,56.25
2023-02-04T10:50:47.124Z,56.25
2023-02-04T10:51:47.497Z,50.63
2023-02-04T10:52:48.623Z,45
2023-02-04T10:53:49.624Z,45
2023-02-04T10:54:49.878Z,45
2023-02-04T10:55:50.080Z,45
2023-02-04T10:56:50.009Z,45
2023-02-04T10:57:51.222Z,45
2023-02-04T10:58:51.601Z,45
2023-02-04T10:59:52.512Z,45
2023-02-04T11:00:53.462Z,45
2023-02-04T11:01:53.890Z,45
2023-02-04T11:02:54.395Z,45
2023-02-04T11:04:00.220Z,39.38
2023-02-04T11:04:55.702Z,39.38
2023-02-04T11:05:55.077Z,39.38
2023-02-04T11:06:55.709Z,39.38
2023-02-04T11:07:56.939Z,39.38
2023-02-04T11:08:57.614Z,39.38
2023-02-04T11:09:59.898Z,45
2023-02-04T11:10:59.541Z,50.63
2023-02-04T11:12:00.465Z,56.25
2023-02-04T11:13:01.660Z,67.5
2023-02-04T11:14:02.254Z,73.13
2023-02-04T11:15:02.169Z,73.13
2023-02-04T11:16:03.109Z,73.13
2023-02-04T11:17:03.319Z,67.5
2023-02-04T11:18:03.533Z,56.25
2023-02-04T11:19:04.144Z,56.25
2023-02-04T11:20:03.475Z,50.63
2023-02-04T11:21:05.408Z,45
2023-02-04T11:22:05.610Z,45
2023-02-04T11:23:05.840Z,45
2023-02-04T11:24:05.647Z,45
2023-02-04T11:25:06.565Z,50.63
2023-02-04T11:26:07.769Z,50.63
2023-02-04T11:27:08.087Z,50.63
2023-02-04T11:28:08.085Z,50.63
2023-02-04T11:29:09.014Z,50.63
2023-02-04T11:30:09.978Z,50.63
2023-02-04T11:31:12.181Z,56.25
2023-02-04T11:32:11.437Z,61.88
2023-02-04T11:33:11.413Z,61.88
2023-02-04T11:34:12.840Z,61.88
2023-02-04T11:35:13.364Z,45
2023-02-04T11:36:13.353Z,45
2023-02-04T11:37:13.582Z,45
2023-02-04T11:38:13.508Z,45
2023-02-04T11:39:14.997Z,39.38
2023-02-04T11:40:14.990Z,39.38
2023-02-04T11:41:15.653Z,45
2023-02-04T11:42:16.575Z,39.38
2023-02-04T11:43:16.509Z,39.38
2023-02-04T11:44:17.823Z,39.38
2023-02-04T11:45:18.037Z,39.38
2023-02-04T11:46:18.181Z,33.75
2023-02-04T11:47:18.830Z,33.75
2023-02-04T11:48:19.793Z,33.75
2023-02-04T11:49:20.413Z,39.38
2023-02-04T11:50:20.465Z,39.38
2023-02-04T11:51:21.094Z,33.75
2023-02-04T11:52:22.348Z,33.75
2023-02-04T11:53:23.226Z,33.75
2023-02-04T11:54:23.522Z,33.75
2023-02-04T11:55:24.503Z,39.38
2023-02-04T11:56:25.773Z,39.38
2023-02-04T11:57:25.403Z,39.38
2023-02-04T11:58:26.386Z,39.38
2023-02-04T11:59:27.306Z,39.38
2023-02-04T12:00:27.842Z,39.38
2023-02-04T12:01:28.055Z,39.38
2023-02-04T12:02:29.655Z,39.38
2023-02-04T12:03:29.286Z,39.38
2023-02-04T12:04:30.246Z,39.38
2023-02-04T12:05:30.817Z,39.38
2023-02-04T12:06:30.943Z,39.38
2023-02-04T12:07:31.152Z,39.38
2023-02-04T12:08:32.142Z,39.38
2023-02-04T12:09:32.054Z,39.38
2023-02-04T12:10:32.979Z,39.38
2023-02-04T12:11:33.168Z,39.38
2023-02-04T12:12:33.072Z,39.38
2023-02-04T12:13:35.880Z,39.38
2023-02-04T12:14:35.032Z,39.38
2023-02-04T12:15:35.743Z,39.38
2023-02-04T12:16:36.526Z,39.38
2023-02-04T12:17:37.024Z,45
2023-02-04T12:18:37.276Z,45
2023-02-04T12:19:39.155Z,50.63
2023-02-04T12:20:36.490Z,56.25
2023-02-04T12:21:37.133Z,56.25
2023-02-04T12:22:38.332Z,61.88
2023-02-04T12:23:38.984Z,61.88
2023-02-04T12:24:40.644Z,61.88
2023-02-04T12:25:41.424Z,61.88
2023-02-04T12:26:41.646Z,56.25
2023-02-04T12:27:41.861Z,50.63
2023-02-04T12:28:42.071Z,50.63
2023-02-04T12:29:42.425Z,45
2023-02-04T12:30:43.741Z,45
2023-02-04T12:31:44.662Z,45
2023-02-04T12:32:45.219Z,45
2023-02-04T12:33:45.143Z,45
2023-02-04T12:34:46.543Z,45
2023-02-04T12:35:46.900Z,39.38
2023-02-04T12:36:46.892Z,39.38
2023-02-04T12:37:48.106Z,39.38
2023-02-04T12:38:48.033Z,39.38
2023-02-04T12:39:48.961Z,39.38
2023-02-04T12:40:49.603Z,39.38
2023-02-04T12:41:50.522Z,39.38
2023-02-04T12:42:51.464Z,39.38
2023-02-04T12:43:52.956Z,39.38
2023-02-04T12:44:52.972Z,39.38
2023-02-04T12:45:54.210Z,39.38
2023-02-04T12:46:54.112Z,39.38
2023-02-04T12:47:55.319Z,39.38
2023-02-04T12:48:55.516Z,39.38
2023-02-04T12:49:56.831Z,39.38
2023-02-04T12:50:57.034Z,39.38
2023-02-04T12:51:58.252Z,45
2023-02-04T12:52:58.189Z,45
2023-02-04T12:53:59.271Z,50.63
2023-02-04T12:55:00.156Z,56.25
2023-02-04T12:56:03.237Z,56.25
2023-02-04T12:57:02.777Z,50.63
2023-02-04T12:58:02.695Z,50.63
2023-02-04T12:59:04.179Z,50.63
2023-02-04T13:00:03.864Z,45
2023-02-04T13:01:08.093Z,45
2023-02-04T13:02:05.764Z,39.38
2023-02-04T13:03:05.832Z,39.38
2023-02-04T13:04:06.068Z,39.38
2023-02-04T13:05:06.776Z,45
2023-02-04T13:06:06.707Z,45
2023-02-04T13:07:09.239Z,45
2023-02-04T13:08:07.873Z,50.63
2023-02-04T13:09:08.532Z,56.25
2023-02-04T13:10:08.907Z,61.88
2023-02-04T13:11:09.836Z,67.5
2023-02-04T13:12:09.746Z,67.5
2023-02-04T13:13:13.671Z,67.5
2023-02-04T13:14:11.919Z,73.13
2023-02-04T13:15:11.913Z,67.5
2023-02-04T13:16:13.359Z,67.5
2023-02-04T13:17:13.034Z,67.5
2023-02-04T13:18:15.239Z,73.13
2023-02-04T13:19:15.028Z,73.13
2023-02-04T13:20:16.425Z,84.38
2023-02-04T13:21:16.643Z,90
2023-02-04T13:22:17.584Z,84.38
2023-02-04T13:23:17.529Z,78.75
2023-02-04T13:24:19.007Z,78.75
2023-02-04T13:25:21.112Z,84.38
2023-02-04T13:26:20.624Z,84.38
2023-02-04T13:27:20.247Z,90
2023-02-04T13:28:21.854Z,90
2023-02-04T13:29:21.766Z,106.88
2023-02-04T13:30:22.939Z,78.75
2023-02-04T13:31:23.607Z,73.13
2023-02-04T13:32:24.154Z,67.5
2023-02-04T13:33:23.788Z,61.88
2023-02-04T13:34:24.435Z,61.88
2023-02-04T13:35:25.829Z,67.5
2023-02-04T13:36:25.757Z,67.5
2023-02-04T13:37:26.975Z,73.13
2023-02-04T13:38:27.176Z,73.13
2023-02-04T13:39:27.096Z,73.13
2023-02-04T13:40:28.029Z,67.5
2023-02-04T13:41:28.545Z,61.88
2023-02-04T13:42:28.742Z,56.25
2023-02-04T13:43:28.951Z,50.63
2023-02-04T13:44:29.151Z,45
2023-02-04T13:45:30.998Z,45
2023-02-04T13:46:30.627Z,45
2023-02-04T13:47:31.117Z,39.38
2023-02-04T13:48:31.073Z,45
2023-02-04T13:49:31.278Z,61.88
2023-02-04T13:50:32.897Z,45
2023-02-04T13:51:33.221Z,39.38
2023-02-04T13:52:32.895Z,33.75
2023-02-04T13:53:34.093Z,33.75
2023-02-04T13:54:36.723Z,39.38
2023-02-04T13:55:36.427Z,39.38
2023-02-04T13:56:35.658Z,33.75
2023-02-04T13:57:36.299Z,33.75
2023-02-04T13:58:37.524Z,28.13
2023-02-04T13:59:38.107Z,28.13
2023-02-04T14:00:39.078Z,22.5
2023-02-04T14:01:39.095Z,28.13
2023-02-04T14:02:39.428Z,28.13
2023-02-04T14:03:40.348Z,33.75
2023-02-04T14:04:42.264Z,33.75